sensor_id;sensor_type;location;lat;lon;timestamp;temperature;humidity
38380;DHT22;38377;47.418;18.882;2023-03-02T00:02:19;-0.20;99.90
38380;DHT22;38377;47.418;18.882;2023-03-02T00:04:57;-0.30;99.90
38380;DHT22;38377;47.418;18.882;2023-03-02T00:07:32;-0.30;99.90
38380;DHT22;38377;47.418;18.882;2023-03-02T00:09:59;-0.40;99.90
38380;DHT22;38377;47.418;18.882;2023-03-02T00:12:29;-0.40;99.90
38380;DHT22;38377;47.418;18.882;2023-03-02T00:14:55;-0.40;99.90
38380;DHT22;38377;47.418;18.882;2023-03-02T00:17:21;-0.40;99.90
38380;DHT22;38377;47.418;18.882;2023-03-02T00:19:52;-0.40;99.90
38380;DHT22;38377;47.418;18.882;2023-03-02T00:22:18;-0.50;99.90
38380;DHT22;38377;47.418;18.882;2023-03-02T00:24:44;-0.50;99.90
38380;DHT22;38377;47.418;18.882;2023-03-02T00:27:10;-0.50;99.90
38380;DHT22;38377;47.418;18.882;2023-03-02T00:29:35;-0.60;99.90
38380;DHT22;38377;47.418;18.882;2023-03-02T00:32:01;-0.50;99.90
38380;DHT22;38377;47.418;18.882;2023-03-02T00:34:29;-0.60;99.90
38380;DHT22;38377;47.418;18.882;2023-03-02T00:36:57;-0.60;99.90
38380;DHT22;38377;47.418;18.882;2023-03-02T00:39:23;-0.60;99.90
38380;DHT22;38377;47.418;18.882;2023-03-02T00:41:48;-0.70;99.90
38380;DHT22;38377;47.418;18.882;2023-03-02T00:44:14;-0.70;99.90
38380;DHT22;38377;47.418;18.882;2023-03-02T00:46:42;-0.70;99.90
38380;DHT22;38377;47.418;18.882;2023-03-02T00:49:09;-0.70;99.90
38380;DHT22;38377;47.418;18.882;2023-03-02T00:51:35;-0.70;99.90
38380;DHT22;38377;47.418;18.882;2023-03-02T00:54:00;-0.80;99.90
38380;DHT22;38377;47.418;18.882;2023-03-02T00:56:28;-0.80;99.90
38380;DHT22;38377;47.418;18.882;2023-03-02T00:58:53;-0.80;99.90
38380;DHT22;38377;47.418;18.882;2023-03-02T01:01:19;-0.70;99.90
38380;DHT22;38377;47.418;18.882;2023-03-02T01:03:45;-0.80;99.90
38380;DHT22;38377;47.418;18.882;2023-03-02T01:06:18;-0.70;99.90
38380;DHT22;38377;47.418;18.882;2023-03-02T01:08:46;-0.70;99.90
38380;DHT22;38377;47.418;18.882;2023-03-02T01:11:17;-0.60;99.90
38380;DHT22;38377;47.418;18.882;2023-03-02T01:13:43;-0.50;99.90
38380;DHT22;38377;47.418;18.882;2023-03-02T01:16:10;-0.40;99.90
38380;DHT22;38377;47.418;18.882;2023-03-02T01:18:36;-0.40;99.90
38380;DHT22;38377;47.418;18.882;2023-03-02T01:21:14;-0.40;99.90
38380;DHT22;38377;47.418;18.882;2023-03-02T01:23:40;-0.40;99.90
38380;DHT22;38377;47.418;18.882;2023-03-02T01:26:06;-0.40;99.90
38380;DHT22;38377;47.418;18.882;2023-03-02T01:28:32;-0.50;99.90
38380;DHT22;38377;47.418;18.882;2023-03-02T01:30:58;-0.50;99.90
38380;DHT22;38377;47.418;18.882;2023-03-02T01:33:26;-0.50;99.90
38380;DHT22;38377;47.418;18.882;2023-03-02T01:35:52;-0.50;99.90
38380;DHT22;38377;47.418;18.882;2023-03-02T01:38:18;-0.50;99.90
38380;DHT22;38377;47.418;18.882;2023-03-02T01:40:44;-0.50;99.90
38380;DHT22;38377;47.418;18.882;2023-03-02T01:43:12;-0.50;99.90
38380;DHT22;38377;47.418;18.882;2023-03-02T01:45:59;-0.40;99.90
38380;DHT22;38377;47.418;18.882;2023-03-02T01:48:38;-0.40;99.90
38380;DHT22;38377;47.418;18.882;2023-03-02T01:51:06;-0.50;99.90
38380;DHT22;38377;47.418;18.882;2023-03-02T01:53:33;-0.20;99.90
38380;DHT22;38377;47.418;18.882;2023-03-02T01:56:00;-0.10;99.90
38380;DHT22;38377;47.418;18.882;2023-03-02T01:58:28;0.00;99.90
38380;DHT22;38377;47.418;18.882;2023-03-02T02:00:56;0.00;99.90
38380;DHT22;38377;47.418;18.882;2023-03-02T02:03:24;0.10;99.90
38380;DHT22;38377;47.418;18.882;2023-03-02T02:06:24;0.30;99.90
38380;DHT22;38377;47.418;18.882;2023-03-02T02:08:51;0.40;99.90
38380;DHT22;38377;47.418;18.882;2023-03-02T02:11:18;0.50;99.90
38380;DHT22;38377;47.418;18.882;2023-03-02T02:13:44;0.70;99.90
38380;DHT22;38377;47.418;18.882;2023-03-02T02:16:10;0.80;99.60
38380;DHT22;38377;47.418;18.882;2023-03-02T02:18:38;0.80;99.70
38380;DHT22;38377;47.418;18.882;2023-03-02T02:21:05;0.80;99.50
38380;DHT22;38377;47.418;18.882;2023-03-02T02:29:11;1.10;97.10
38380;DHT22;38377;47.418;18.882;2023-03-02T02:31:50;1.10;96.70
38380;DHT22;38377;47.418;18.882;2023-03-02T02:34:40;1.20;95.90
38380;DHT22;38377;47.418;18.882;2023-03-02T02:37:25;1.40;95.90
38380;DHT22;38377;47.418;18.882;2023-03-02T02:39:52;1.40;95.50
38380;DHT22;38377;47.418;18.882;2023-03-02T02:42:24;1.50;94.90
38380;DHT22;38377;47.418;18.882;2023-03-02T02:44:56;1.50;95.10
38380;DHT22;38377;47.418;18.882;2023-03-02T02:47:22;1.50;95.40
38380;DHT22;38377;47.418;18.882;2023-03-02T02:49:51;1.50;95.20
38380;DHT22;38377;47.418;18.882;2023-03-02T02:52:19;1.50;95.10
38380;DHT22;38377;47.418;18.882;2023-03-02T02:54:48;1.50;95.40
38380;DHT22;38377;47.418;18.882;2023-03-02T02:57:15;1.40;95.50
38380;DHT22;38377;47.418;18.882;2023-03-02T02:59:51;1.40;95.70
38380;DHT22;38377;47.418;18.882;2023-03-02T03:02:29;1.50;95.90
38380;DHT22;38377;47.418;18.882;2023-03-02T03:04:56;1.50;96.20
38380;DHT22;38377;47.418;18.882;2023-03-02T03:07:30;1.50;96.30
38380;DHT22;38377;47.418;18.882;2023-03-02T03:10:13;1.40;96.90
38380;DHT22;38377;47.418;18.882;2023-03-02T03:12:39;1.40;96.80
38380;DHT22;38377;47.418;18.882;2023-03-02T03:15:07;1.30;96.50
38380;DHT22;38377;47.418;18.882;2023-03-02T03:17:33;1.30;96.80
38380;DHT22;38377;47.418;18.882;2023-03-02T03:19:58;1.20;96.80
38380;DHT22;38377;47.418;18.882;2023-03-02T03:22:33;1.10;97.20
38380;DHT22;38377;47.418;18.882;2023-03-02T03:24:59;1.10;97.60
38380;DHT22;38377;47.418;18.882;2023-03-02T03:27:25;1.00;97.70
38380;DHT22;38377;47.418;18.882;2023-03-02T03:29:50;1.00;98.10
38380;DHT22;38377;47.418;18.882;2023-03-02T03:32:17;0.80;98.40
38380;DHT22;38377;47.418;18.882;2023-03-02T03:34:43;0.70;98.80
38380;DHT22;38377;47.418;18.882;2023-03-02T03:37:11;0.50;99.40
38380;DHT22;38377;47.418;18.882;2023-03-02T03:39:37;0.40;99.90
38380;DHT22;38377;47.418;18.882;2023-03-02T03:42:04;0.30;99.90
38380;DHT22;38377;47.418;18.882;2023-03-02T03:44:30;0.20;99.90
38380;DHT22;38377;47.418;18.882;2023-03-02T03:46:55;0.10;99.90
38380;DHT22;38377;47.418;18.882;2023-03-02T03:49:21;0.10;99.90
38380;DHT22;38377;47.418;18.882;2023-03-02T03:51:47;0.00;99.90
38380;DHT22;38377;47.418;18.882;2023-03-02T03:54:13;-0.10;99.90
38380;DHT22;38377;47.418;18.882;2023-03-02T03:56:45;-0.10;99.90
38380;DHT22;38377;47.418;18.882;2023-03-02T03:59:17;-0.10;99.90
38380;DHT22;38377;47.418;18.882;2023-03-02T04:01:52;-0.20;99.90
38380;DHT22;38377;47.418;18.882;2023-03-02T04:04:25;-0.20;99.90
38380;DHT22;38377;47.418;18.882;2023-03-02T04:06:51;-0.30;99.90
38380;DHT22;38377;47.418;18.882;2023-03-02T04:09:17;-0.30;99.90
38380;DHT22;38377;47.418;18.882;2023-03-02T04:11:45;-0.30;99.90
38380;DHT22;38377;47.418;18.882;2023-03-02T04:14:11;-0.40;99.90
38380;DHT22;38377;47.418;18.882;2023-03-02T04:16:38;-0.40;99.90
38380;DHT22;38377;47.418;18.882;2023-03-02T04:19:04;-0.50;99.90
38380;DHT22;38377;47.418;18.882;2023-03-02T04:21:39;-0.50;99.90
38380;DHT22;38377;47.418;18.882;2023-03-02T04:24:06;-0.50;99.90
38380;DHT22;38377;47.418;18.882;2023-03-02T04:26:33;-0.40;99.90
38380;DHT22;38377;47.418;18.882;2023-03-02T04:28:59;-0.40;99.90
38380;DHT22;38377;47.418;18.882;2023-03-02T04:31:24;-0.30;99.90
38380;DHT22;38377;47.418;18.882;2023-03-02T04:33:50;-0.20;99.90
38380;DHT22;38377;47.418;18.882;2023-03-02T04:36:16;-0.10;99.90
38380;DHT22;38377;47.418;18.882;2023-03-02T04:38:42;-0.10;99.90
38380;DHT22;38377;47.418;18.882;2023-03-02T04:41:07;-0.10;99.90
38380;DHT22;38377;47.418;18.882;2023-03-02T04:43:33;0.00;99.90
38380;DHT22;38377;47.418;18.882;2023-03-02T04:45:59;-0.10;99.90
38380;DHT22;38377;47.418;18.882;2023-03-02T04:48:26;-0.10;99.90
38380;DHT22;38377;47.418;18.882;2023-03-02T04:50:51;-0.10;99.90
38380;DHT22;38377;47.418;18.882;2023-03-02T04:53:17;-0.20;99.90
38380;DHT22;38377;47.418;18.882;2023-03-02T04:55:43;-0.20;99.90
38380;DHT22;38377;47.418;18.882;2023-03-02T04:58:09;-0.10;99.90
38380;DHT22;38377;47.418;18.882;2023-03-02T05:00:35;0.20;99.90
38380;DHT22;38377;47.418;18.882;2023-03-02T05:03:01;0.30;99.90
38380;DHT22;38377;47.418;18.882;2023-03-02T05:05:28;0.40;99.90
38380;DHT22;38377;47.418;18.882;2023-03-02T05:07:55;0.50;99.90
38380;DHT22;38377;47.418;18.882;2023-03-02T05:10:23;0.50;99.90
38380;DHT22;38377;47.418;18.882;2023-03-02T05:12:49;0.50;99.90
38380;DHT22;38377;47.418;18.882;2023-03-02T05:15:40;0.40;99.90
38380;DHT22;38377;47.418;18.882;2023-03-02T05:18:07;0.40;99.90
38380;DHT22;38377;47.418;18.882;2023-03-02T05:20:35;0.50;99.90
38380;DHT22;38377;47.418;18.882;2023-03-02T05:23:04;0.50;99.90
38380;DHT22;38377;47.418;18.882;2023-03-02T05:25:32;0.60;99.90
38380;DHT22;38377;47.418;18.882;2023-03-02T05:27:58;0.60;99.50
38380;DHT22;38377;47.418;18.882;2023-03-02T05:30:25;0.70;98.90
38380;DHT22;38377;47.418;18.882;2023-03-02T05:32:51;0.80;98.80
38380;DHT22;38377;47.418;18.882;2023-03-02T05:35:18;0.70;98.90
38380;DHT22;38377;47.418;18.882;2023-03-02T05:37:44;0.60;99.60
38380;DHT22;38377;47.418;18.882;2023-03-02T05:40:16;0.50;99.80
38380;DHT22;38377;47.418;18.882;2023-03-02T05:42:42;0.30;99.90
38380;DHT22;38377;47.418;18.882;2023-03-02T05:45:13;0.20;99.90
38380;DHT22;38377;47.418;18.882;2023-03-02T05:47:41;0.20;99.90
38380;DHT22;38377;47.418;18.882;2023-03-02T05:50:07;0.00;99.90
38380;DHT22;38377;47.418;18.882;2023-03-02T05:52:33;-0.10;99.90
38380;DHT22;38377;47.418;18.882;2023-03-02T05:54:58;-0.20;99.90
38380;DHT22;38377;47.418;18.882;2023-03-02T05:57:24;-0.10;99.90
38380;DHT22;38377;47.418;18.882;2023-03-02T05:59:50;-0.10;99.90
38380;DHT22;38377;47.418;18.882;2023-03-02T06:02:16;-0.20;99.90
38380;DHT22;38377;47.418;18.882;2023-03-02T06:04:42;-0.10;99.90
38380;DHT22;38377;47.418;18.882;2023-03-02T06:07:09;-0.10;99.90
38380;DHT22;38377;47.418;18.882;2023-03-02T06:09:37;0.00;99.90
38380;DHT22;38377;47.418;18.882;2023-03-02T06:12:02;0.20;99.90
38380;DHT22;38377;47.418;18.882;2023-03-02T06:14:28;0.30;99.90
38380;DHT22;38377;47.418;18.882;2023-03-02T06:16:54;0.40;99.90
38380;DHT22;38377;47.418;18.882;2023-03-02T06:19:20;0.60;99.90
38380;DHT22;38377;47.418;18.882;2023-03-02T06:21:45;0.90;99.90
38380;DHT22;38377;47.418;18.882;2023-03-02T06:24:11;1.30;99.90
38380;DHT22;38377;47.418;18.882;2023-03-02T06:26:37;1.80;99.50
38380;DHT22;38377;47.418;18.882;2023-03-02T06:29:02;2.30;98.90
38380;DHT22;38377;47.418;18.882;2023-03-02T06:31:30;2.90;94.10
38380;DHT22;38377;47.418;18.882;2023-03-02T06:33:56;3.30;93.40
38380;DHT22;38377;47.418;18.882;2023-03-02T06:36:22;3.70;93.10
38380;DHT22;38377;47.418;18.882;2023-03-02T06:38:48;3.80;91.80
38380;DHT22;38377;47.418;18.882;2023-03-02T06:41:14;4.00;91.50
38380;DHT22;38377;47.418;18.882;2023-03-02T06:43:40;4.20;87.60
38380;DHT22;38377;47.418;18.882;2023-03-02T06:46:06;4.40;89.50
38380;DHT22;38377;47.418;18.882;2023-03-02T06:48:31;4.50;80.50
38380;DHT22;38377;47.418;18.882;2023-03-02T06:50:57;4.80;80.60
38380;DHT22;38377;47.418;18.882;2023-03-02T06:53:23;5.00;79.50
38380;DHT22;38377;47.418;18.882;2023-03-02T06:55:49;5.20;75.30
38380;DHT22;38377;47.418;18.882;2023-03-02T06:58:15;5.30;77.20
38380;DHT22;38377;47.418;18.882;2023-03-02T07:00:41;5.50;74.30
38380;DHT22;38377;47.418;18.882;2023-03-02T07:03:07;5.60;71.90
38380;DHT22;38377;47.418;18.882;2023-03-02T07:05:32;5.70;73.30
38380;DHT22;38377;47.418;18.882;2023-03-02T07:07:58;5.80;73.80
38380;DHT22;38377;47.418;18.882;2023-03-02T07:10:24;5.90;69.50
38380;DHT22;38377;47.418;18.882;2023-03-02T07:12:50;6.10;71.40
38380;DHT22;38377;47.418;18.882;2023-03-02T07:15:17;6.20;70.70
38380;DHT22;38377;47.418;18.882;2023-03-02T07:17:44;6.20;69.70
38380;DHT22;38377;47.418;18.882;2023-03-02T07:20:15;6.30;68.10
38380;DHT22;38377;47.418;18.882;2023-03-02T07:22:41;6.40;69.40
38380;DHT22;38377;47.418;18.882;2023-03-02T07:25:08;6.50;68.10
38380;DHT22;38377;47.418;18.882;2023-03-02T07:27:34;6.60;67.00
38380;DHT22;38377;47.418;18.882;2023-03-02T07:30:00;6.70;68.50
38380;DHT22;38377;47.418;18.882;2023-03-02T07:32:25;6.50;67.00
38380;DHT22;38377;47.418;18.882;2023-03-02T07:34:51;6.60;68.00
38380;DHT22;38377;47.418;18.882;2023-03-02T07:37:17;6.70;66.50
38380;DHT22;38377;47.418;18.882;2023-03-02T07:39:42;6.80;66.60
38380;DHT22;38377;47.418;18.882;2023-03-02T07:42:11;6.80;66.80
38380;DHT22;38377;47.418;18.882;2023-03-02T07:44:36;6.90;66.80
38380;DHT22;38377;47.418;18.882;2023-03-02T07:47:03;7.00;66.90
38380;DHT22;38377;47.418;18.882;2023-03-02T07:49:28;6.90;64.60
38380;DHT22;38377;47.418;18.882;2023-03-02T07:51:57;7.00;64.90
38380;DHT22;38377;47.418;18.882;2023-03-02T07:54:22;7.00;66.60
38380;DHT22;38377;47.418;18.882;2023-03-02T07:56:51;7.20;67.70
38380;DHT22;38377;47.418;18.882;2023-03-02T07:59:16;7.30;67.20
38380;DHT22;38377;47.418;18.882;2023-03-02T08:01:42;7.40;65.70
38380;DHT22;38377;47.418;18.882;2023-03-02T08:04:08;7.40;64.40
38380;DHT22;38377;47.418;18.882;2023-03-02T08:06:34;7.60;66.40
38380;DHT22;38377;47.418;18.882;2023-03-02T08:09:02;7.60;64.80
38380;DHT22;38377;47.418;18.882;2023-03-02T08:11:28;7.60;65.80
38380;DHT22;38377;47.418;18.882;2023-03-02T08:13:54;7.60;65.70
38380;DHT22;38377;47.418;18.882;2023-03-02T08:16:19;7.60;66.30
38380;DHT22;38377;47.418;18.882;2023-03-02T08:18:46;7.70;68.10
38380;DHT22;38377;47.418;18.882;2023-03-02T08:21:21;7.70;66.30
38380;DHT22;38377;47.418;18.882;2023-03-02T08:23:47;7.80;67.10
38380;DHT22;38377;47.418;18.882;2023-03-02T08:26:13;8.00;67.40
38380;DHT22;38377;47.418;18.882;2023-03-02T08:28:39;8.10;66.30
38380;DHT22;38377;47.418;18.882;2023-03-02T08:31:06;8.10;66.00
38380;DHT22;38377;47.418;18.882;2023-03-02T08:33:33;8.10;65.90
38380;DHT22;38377;47.418;18.882;2023-03-02T08:36:09;8.20;66.80
38380;DHT22;38377;47.418;18.882;2023-03-02T08:38:35;8.50;66.30
38380;DHT22;38377;47.418;18.882;2023-03-02T08:41:06;8.60;65.80
38380;DHT22;38377;47.418;18.882;2023-03-02T08:43:33;8.80;64.60
38380;DHT22;38377;47.418;18.882;2023-03-02T08:45:59;8.70;64.50
38380;DHT22;38377;47.418;18.882;2023-03-02T08:48:25;8.80;64.90
38380;DHT22;38377;47.418;18.882;2023-03-02T08:50:58;9.00;65.60
38380;DHT22;38377;47.418;18.882;2023-03-02T08:53:24;8.90;65.30
38380;DHT22;38377;47.418;18.882;2023-03-02T08:55:50;8.90;65.10
38380;DHT22;38377;47.418;18.882;2023-03-02T08:58:17;9.10;64.90
38380;DHT22;38377;47.418;18.882;2023-03-02T09:00:43;8.90;65.20
38380;DHT22;38377;47.418;18.882;2023-03-02T09:03:09;9.00;65.00
38380;DHT22;38377;47.418;18.882;2023-03-02T09:05:34;8.90;65.20
38380;DHT22;38377;47.418;18.882;2023-03-02T09:08:00;8.90;67.30
38380;DHT22;38377;47.418;18.882;2023-03-02T09:10:26;9.00;67.20
38380;DHT22;38377;47.418;18.882;2023-03-02T09:12:52;9.00;66.70
38380;DHT22;38377;47.418;18.882;2023-03-02T09:15:17;9.00;66.70
38380;DHT22;38377;47.418;18.882;2023-03-02T09:17:43;9.10;66.80
38380;DHT22;38377;47.418;18.882;2023-03-02T09:20:09;9.10;65.70
38380;DHT22;38377;47.418;18.882;2023-03-02T09:22:35;9.10;65.30
38380;DHT22;38377;47.418;18.882;2023-03-02T09:25:02;9.20;66.50
38380;DHT22;38377;47.418;18.882;2023-03-02T09:27:28;9.20;69.40
38380;DHT22;38377;47.418;18.882;2023-03-02T09:29:54;9.30;67.40
38380;DHT22;38377;47.418;18.882;2023-03-02T09:32:20;9.40;65.90
38380;DHT22;38377;47.418;18.882;2023-03-02T09:34:46;9.50;68.10
38380;DHT22;38377;47.418;18.882;2023-03-02T09:37:11;9.60;65.70
38380;DHT22;38377;47.418;18.882;2023-03-02T09:39:37;9.30;66.90
38380;DHT22;38377;47.418;18.882;2023-03-02T09:42:14;9.50;67.20
38380;DHT22;38377;47.418;18.882;2023-03-02T09:54:02;9.90;65.20
38380;DHT22;38377;47.418;18.882;2023-03-02T09:56:28;10.00;66.00
38380;DHT22;38377;47.418;18.882;2023-03-02T09:58:59;10.10;66.70
38380;DHT22;38377;47.418;18.882;2023-03-02T10:01:38;10.10;65.30
38380;DHT22;38377;47.418;18.882;2023-03-02T10:04:59;10.10;65.00
38380;DHT22;38377;47.418;18.882;2023-03-02T10:07:32;9.80;64.90
38380;DHT22;38377;47.418;18.882;2023-03-02T10:21:21;10.00;65.30
38380;DHT22;38377;47.418;18.882;2023-03-02T10:28:46;10.10;64.40
38380;DHT22;38377;47.418;18.882;2023-03-02T10:31:35;10.00;64.10
38380;DHT22;38377;47.418;18.882;2023-03-02T10:34:03;9.90;65.30
38380;DHT22;38377;47.418;18.882;2023-03-02T10:36:33;9.80;65.70
38380;DHT22;38377;47.418;18.882;2023-03-02T10:39:05;9.70;65.50
38380;DHT22;38377;47.418;18.882;2023-03-02T10:41:42;10.00;65.80
38380;DHT22;38377;47.418;18.882;2023-03-02T10:44:18;10.10;63.60
38380;DHT22;38377;47.418;18.882;2023-03-02T10:46:45;10.20;64.10
38380;DHT22;38377;47.418;18.882;2023-03-02T10:52:13;10.30;64.30
38380;DHT22;38377;47.418;18.882;2023-03-02T10:54:39;10.10;64.40
38380;DHT22;38377;47.418;18.882;2023-03-02T10:57:26;10.40;65.10
38380;DHT22;38377;47.418;18.882;2023-03-02T11:00:03;10.50;63.30
38380;DHT22;38377;47.418;18.882;2023-03-02T11:02:36;10.40;64.10
38380;DHT22;38377;47.418;18.882;2023-03-02T11:05:28;10.70;65.40
38380;DHT22;38377;47.418;18.882;2023-03-02T11:08:08;10.80;64.10
38380;DHT22;38377;47.418;18.882;2023-03-02T11:10:51;10.70;63.90
38380;DHT22;38377;47.418;18.882;2023-03-02T11:13:38;10.90;64.70
38380;DHT22;38377;47.418;18.882;2023-03-02T11:16:30;10.90;64.80
38380;DHT22;38377;47.418;18.882;2023-03-02T11:24:17;10.80;65.30
38380;DHT22;38377;47.418;18.882;2023-03-02T11:29:29;10.90;68.60
38380;DHT22;38377;47.418;18.882;2023-03-02T11:37:25;11.40;67.90
38380;DHT22;38377;47.418;18.882;2023-03-02T11:40:04;11.30;68.00
38380;DHT22;38377;47.418;18.882;2023-03-02T11:42:39;11.50;68.70
38380;DHT22;38377;47.418;18.882;2023-03-02T11:47:38;11.50;68.90
38380;DHT22;38377;47.418;18.882;2023-03-02T11:50:06;11.60;69.00
38380;DHT22;38377;47.418;18.882;2023-03-02T11:52:37;11.70;68.40
38380;DHT22;38377;47.418;18.882;2023-03-02T11:55:16;11.90;69.30
38380;DHT22;38377;47.418;18.882;2023-03-02T11:57:46;12.00;67.70
38380;DHT22;38377;47.418;18.882;2023-03-02T12:03:03;12.10;67.90
38380;DHT22;38377;47.418;18.882;2023-03-02T12:05:32;12.00;67.40
38380;DHT22;38377;47.418;18.882;2023-03-02T12:08:03;11.70;68.70
38380;DHT22;38377;47.418;18.882;2023-03-02T12:10:39;11.90;69.60
38380;DHT22;38377;47.418;18.882;2023-03-02T12:13:41;12.00;69.50
38380;DHT22;38377;47.418;18.882;2023-03-02T12:19:39;12.20;69.40
38380;DHT22;38377;47.418;18.882;2023-03-02T12:22:08;12.20;69.20
38380;DHT22;38377;47.418;18.882;2023-03-02T12:24:39;12.20;70.10
38380;DHT22;38377;47.418;18.882;2023-03-02T12:29:54;12.20;70.10
38380;DHT22;38377;47.418;18.882;2023-03-02T12:32:30;12.20;70.30
38380;DHT22;38377;47.418;18.882;2023-03-02T12:35:30;12.10;71.20
38380;DHT22;38377;47.418;18.882;2023-03-02T12:37:51;12.10;71.20
38380;DHT22;38377;47.418;18.882;2023-03-02T12:45:44;12.20;70.80
38380;DHT22;38377;47.418;18.882;2023-03-02T12:51:20;12.30;70.20
38380;DHT22;38377;47.418;18.882;2023-03-02T12:53:47;12.30;70.10
38380;DHT22;38377;47.418;18.882;2023-03-02T12:56:24;12.30;71.50
38380;DHT22;38377;47.418;18.882;2023-03-02T12:58:51;12.30;71.90
38380;DHT22;38377;47.418;18.882;2023-03-02T13:01:25;12.40;71.30
38380;DHT22;38377;47.418;18.882;2023-03-02T13:03:52;12.50;71.20
38380;DHT22;38377;47.418;18.882;2023-03-02T13:06:18;12.20;72.00
38380;DHT22;38377;47.418;18.882;2023-03-02T13:08:47;12.30;72.30
38380;DHT22;38377;47.418;18.882;2023-03-02T13:11:33;12.30;72.70
38380;DHT22;38377;47.418;18.882;2023-03-02T13:14:00;12.40;73.30
38380;DHT22;38377;47.418;18.882;2023-03-02T13:16:32;12.20;72.80
38380;DHT22;38377;47.418;18.882;2023-03-02T13:19:12;12.20;73.10
38380;DHT22;38377;47.418;18.882;2023-03-02T13:21:42;12.10;73.90
38380;DHT22;38377;47.418;18.882;2023-03-02T13:27:20;12.20;72.90
38380;DHT22;38377;47.418;18.882;2023-03-02T13:29:47;12.10;73.50
38380;DHT22;38377;47.418;18.882;2023-03-02T13:32:25;12.30;72.80
38380;DHT22;38377;47.418;18.882;2023-03-02T13:34:58;12.30;73.20
38380;DHT22;38377;47.418;18.882;2023-03-02T13:37:35;12.20;73.00
38380;DHT22;38377;47.418;18.882;2023-03-02T13:42:52;12.10;74.10
38380;DHT22;38377;47.418;18.882;2023-03-02T13:45:25;12.00;74.40
38380;DHT22;38377;47.418;18.882;2023-03-02T13:47:52;12.00;74.60
38380;DHT22;38377;47.418;18.882;2023-03-02T13:50:23;12.10;74.30
38380;DHT22;38377;47.418;18.882;2023-03-02T13:52:50;12.10;73.60
38380;DHT22;38377;47.418;18.882;2023-03-02T13:55:18;12.20;72.70
38380;DHT22;38377;47.418;18.882;2023-03-02T13:57:44;12.30;74.40
38380;DHT22;38377;47.418;18.882;2023-03-02T14:00:34;12.30;72.30
38380;DHT22;38377;47.418;18.882;2023-03-02T14:03:00;12.30;72.60
38380;DHT22;38377;47.418;18.882;2023-03-02T14:05:27;12.20;73.00
38380;DHT22;38377;47.418;18.882;2023-03-02T14:07:57;12.20;73.00
38380;DHT22;38377;47.418;18.882;2023-03-02T14:10:23;12.20;72.20
38380;DHT22;38377;47.418;18.882;2023-03-02T14:13:06;12.20;72.60
38380;DHT22;38377;47.418;18.882;2023-03-02T14:15:39;12.20;72.30
38380;DHT22;38377;47.418;18.882;2023-03-02T14:18:19;12.20;72.40
38380;DHT22;38377;47.418;18.882;2023-03-02T14:20:48;12.20;72.00
38380;DHT22;38377;47.418;18.882;2023-03-02T14:23:13;12.10;71.70
38380;DHT22;38377;47.418;18.882;2023-03-02T14:25:39;12.10;73.00
38380;DHT22;38377;47.418;18.882;2023-03-02T14:28:09;12.00;72.70
38380;DHT22;38377;47.418;18.882;2023-03-02T14:30:37;12.00;72.40
38380;DHT22;38377;47.418;18.882;2023-03-02T14:33:04;12.00;73.60
38380;DHT22;38377;47.418;18.882;2023-03-02T14:35:30;11.90;72.40
38380;DHT22;38377;47.418;18.882;2023-03-02T14:37:55;11.80;73.00
38380;DHT22;38377;47.418;18.882;2023-03-02T14:40:27;11.80;73.10
38380;DHT22;38377;47.418;18.882;2023-03-02T14:42:53;11.80;73.50
38380;DHT22;38377;47.418;18.882;2023-03-02T14:45:19;11.80;73.80
38380;DHT22;38377;47.418;18.882;2023-03-02T14:47:46;11.80;73.40
38380;DHT22;38377;47.418;18.882;2023-03-02T14:50:14;11.80;73.80
38380;DHT22;38377;47.418;18.882;2023-03-02T14:52:50;11.80;73.70
38380;DHT22;38377;47.418;18.882;2023-03-02T14:55:31;11.80;73.60
38380;DHT22;38377;47.418;18.882;2023-03-02T14:58:26;11.70;74.20
38380;DHT22;38377;47.418;18.882;2023-03-02T15:00:54;11.50;74.20
38380;DHT22;38377;47.418;18.882;2023-03-02T15:03:20;11.50;74.60
38380;DHT22;38377;47.418;18.882;2023-03-02T15:05:51;11.40;74.60
38380;DHT22;38377;47.418;18.882;2023-03-02T15:08:19;11.40;75.50
38380;DHT22;38377;47.418;18.882;2023-03-02T15:10:45;11.40;75.40
38380;DHT22;38377;47.418;18.882;2023-03-02T15:13:12;11.40;75.30
38380;DHT22;38377;47.418;18.882;2023-03-02T15:15:40;11.30;76.00
38380;DHT22;38377;47.418;18.882;2023-03-02T15:18:06;11.40;76.50
38380;DHT22;38377;47.418;18.882;2023-03-02T15:20:32;11.30;76.20
38380;DHT22;38377;47.418;18.882;2023-03-02T15:22:59;11.20;76.40
38380;DHT22;38377;47.418;18.882;2023-03-02T15:25:24;11.20;76.40
38380;DHT22;38377;47.418;18.882;2023-03-02T15:27:55;11.20;76.70
38380;DHT22;38377;47.418;18.882;2023-03-02T15:30:22;11.10;77.20
38380;DHT22;38377;47.418;18.882;2023-03-02T15:32:49;11.10;77.40
38380;DHT22;38377;47.418;18.882;2023-03-02T15:35:16;11.10;77.20
38380;DHT22;38377;47.418;18.882;2023-03-02T15:37:41;11.10;77.60
38380;DHT22;38377;47.418;18.882;2023-03-02T15:40:08;11.00;77.60
38380;DHT22;38377;47.418;18.882;2023-03-02T15:42:34;11.00;78.30
38380;DHT22;38377;47.418;18.882;2023-03-02T15:44:59;10.90;78.10
38380;DHT22;38377;47.418;18.882;2023-03-02T15:47:25;10.80;78.30
38380;DHT22;38377;47.418;18.882;2023-03-02T15:49:51;10.80;78.50
38380;DHT22;38377;47.418;18.882;2023-03-02T15:52:17;10.70;78.50
38380;DHT22;38377;47.418;18.882;2023-03-02T15:54:44;10.70;78.60
38380;DHT22;38377;47.418;18.882;2023-03-02T15:57:10;10.70;78.90
38380;DHT22;38377;47.418;18.882;2023-03-02T15:59:36;10.60;79.20
38380;DHT22;38377;47.418;18.882;2023-03-02T16:02:02;10.50;79.40
38380;DHT22;38377;47.418;18.882;2023-03-02T16:04:29;10.40;80.30
38380;DHT22;38377;47.418;18.882;2023-03-02T16:06:57;10.30;80.80
38380;DHT22;38377;47.418;18.882;2023-03-02T16:09:23;10.10;81.90
38380;DHT22;38377;47.418;18.882;2023-03-02T16:11:50;10.00;82.60
38380;DHT22;38377;47.418;18.882;2023-03-02T16:14:16;9.80;82.60
38380;DHT22;38377;47.418;18.882;2023-03-02T16:16:45;9.70;83.40
38380;DHT22;38377;47.418;18.882;2023-03-02T16:19:13;9.60;84.20
38380;DHT22;38377;47.418;18.882;2023-03-02T16:21:39;9.50;84.70
38380;DHT22;38377;47.418;18.882;2023-03-02T16:24:05;9.40;85.00
38380;DHT22;38377;47.418;18.882;2023-03-02T16:26:33;9.20;85.50
38380;DHT22;38377;47.418;18.882;2023-03-02T16:29:00;9.10;85.90
38380;DHT22;38377;47.418;18.882;2023-03-02T16:31:26;9.00;86.90
38380;DHT22;38377;47.418;18.882;2023-03-02T16:33:56;8.90;87.20
38380;DHT22;38377;47.418;18.882;2023-03-02T16:36:24;8.80;87.90
38380;DHT22;38377;47.418;18.882;2023-03-02T16:38:51;8.70;88.00
38380;DHT22;38377;47.418;18.882;2023-03-02T16:41:19;8.60;88.50
38380;DHT22;38377;47.418;18.882;2023-03-02T16:43:48;8.50;88.80
38380;DHT22;38377;47.418;18.882;2023-03-02T16:46:15;8.40;88.80
38380;DHT22;38377;47.418;18.882;2023-03-02T16:48:42;8.40;89.50